sensor_id;sensor_type;location;lat;lon;timestamp;P1;durP1;ratioP1;P2;durP2;ratioP2
21274;SDS011;36472;52.170;20.884;2022-10-03T00:04:27;13.10;;;10.05;;
21274;SDS011;36472;52.170;20.884;2022-10-03T00:11:29;11.30;;;9.02;;
21274;SDS011;36472;52.170;20.884;2022-10-03T00:17:57;14.27;;;11.40;;
21274;SDS011;36472;52.170;20.884;2022-10-03T00:20:45;12.65;;;10.32;;
21274;SDS011;36472;52.170;20.884;2022-10-03T00:23:32;12.20;;;10.10;;
21274;SDS011;36472;52.170;20.884;2022-10-03T00:26:15;15.27;;;10.63;;
21274;SDS011;36472;52.170;20.884;2022-10-03T00:29:01;13.05;;;10.02;;
21274;SDS011;36472;52.170;20.884;2022-10-03T00:31:54;11.75;;;9.30;;
21274;SDS011;36472;52.170;20.884;2022-10-03T00:34:42;11.20;;;9.02;;
21274;SDS011;36472;52.170;20.884;2022-10-03T00:37:31;11.57;;;8.77;;
21274;SDS011;36472;52.170;20.884;2022-10-03T00:40:23;12.02;;;7.50;;
21274;SDS011;36472;52.170;20.884;2022-10-03T00:43:38;7.97;;;4.80;;
21274;SDS011;36472;52.170;20.884;2022-10-03T00:47:12;7.25;;;4.65;;
21274;SDS011;36472;52.170;20.884;2022-10-03T00:50:13;9.63;;;4.68;;
21274;SDS011;36472;52.170;20.884;2022-10-03T00:53:02;9.85;;;4.47;;
21274;SDS011;36472;52.170;20.884;2022-10-03T00:56:00;6.00;;;4.03;;
21274;SDS011;36472;52.170;20.884;2022-10-03T00:58:51;8.82;;;4.57;;
21274;SDS011;36472;52.170;20.884;2022-10-03T01:06:19;8.95;;;4.55;;
21274;SDS011;36472;52.170;20.884;2022-10-03T01:09:08;9.43;;;4.60;;
21274;SDS011;36472;52.170;20.884;2022-10-03T01:12:12;8.43;;;3.78;;
21274;SDS011;36472;52.170;20.884;2022-10-03T01:15:09;6.78;;;4.45;;
21274;SDS011;36472;52.170;20.884;2022-10-03T01:17:56;7.22;;;4.13;;
21274;SDS011;36472;52.170;20.884;2022-10-03T01:20:44;6.65;;;4.00;;
21274;SDS011;36472;52.170;20.884;2022-10-03T01:23:40;9.50;;;4.63;;
21274;SDS011;36472;52.170;20.884;2022-10-03T01:26:37;5.78;;;3.90;;
21274;SDS011;36472;52.170;20.884;2022-10-03T01:29:22;8.38;;;4.70;;
21274;SDS011;36472;52.170;20.884;2022-10-03T01:32:27;6.57;;;4.30;;
21274;SDS011;36472;52.170;20.884;2022-10-03T01:35:08;7.15;;;4.65;;
21274;SDS011;36472;52.170;20.884;2022-10-03T01:37:52;7.57;;;3.90;;
21274;SDS011;36472;52.170;20.884;2022-10-03T01:40:33;6.07;;;4.20;;
21274;SDS011;36472;52.170;20.884;2022-10-03T01:43:12;8.60;;;4.35;;
21274;SDS011;36472;52.170;20.884;2022-10-03T01:45:51;8.95;;;4.80;;
21274;SDS011;36472;52.170;20.884;2022-10-03T01:48:36;8.25;;;4.05;;
21274;SDS011;36472;52.170;20.884;2022-10-03T01:51:15;10.95;;;4.70;;
21274;SDS011;36472;52.170;20.884;2022-10-03T01:54:00;8.00;;;4.97;;
21274;SDS011;36472;52.170;20.884;2022-10-03T01:56:49;6.57;;;4.55;;
21274;SDS011;36472;52.170;20.884;2022-10-03T01:59:28;7.97;;;4.20;;
21274;SDS011;36472;52.170;20.884;2022-10-03T02:02:11;8.20;;;4.80;;
21274;SDS011;36472;52.170;20.884;2022-10-03T02:04:57;7.47;;;4.85;;
21274;SDS011;36472;52.170;20.884;2022-10-03T02:07:39;6.65;;;4.05;;
21274;SDS011;36472;52.170;20.884;2022-10-03T02:14:52;8.30;;;4.55;;
21274;SDS011;36472;52.170;20.884;2022-10-03T02:17:41;7.30;;;3.63;;
21274;SDS011;36472;52.170;20.884;2022-10-03T02:20:24;7.88;;;4.22;;
21274;SDS011;36472;52.170;20.884;2022-10-03T02:23:03;6.78;;;4.15;;
21274;SDS011;36472;52.170;20.884;2022-10-03T02:25:57;7.93;;;3.75;;
21274;SDS011;36472;52.170;20.884;2022-10-03T02:28:54;6.43;;;3.72;;
21274;SDS011;36472;52.170;20.884;2022-10-03T02:32:01;11.30;;;4.03;;
21274;SDS011;36472;52.170;20.884;2022-10-03T02:35:11;5.28;;;3.50;;
21274;SDS011;36472;52.170;20.884;2022-10-03T02:38:33;5.93;;;4.20;;
21274;SDS011;36472;52.170;20.884;2022-10-03T02:41:39;9.02;;;4.50;;
21274;SDS011;36472;52.170;20.884;2022-10-03T02:44:44;9.07;;;4.40;;
21274;SDS011;36472;52.170;20.884;2022-10-03T02:48:22;6.40;;;4.68;;
21274;SDS011;36472;52.170;20.884;2022-10-03T02:54:52;5.30;;;3.72;;
21274;SDS011;36472;52.170;20.884;2022-10-03T02:57:49;5.85;;;3.67;;
21274;SDS011;36472;52.170;20.884;2022-10-03T03:00:59;8.32;;;3.58;;
21274;SDS011;36472;52.170;20.884;2022-10-03T03:04:35;6.97;;;4.05;;
21274;SDS011;36472;52.170;20.884;2022-10-03T03:07:37;7.10;;;4.10;;
21274;SDS011;36472;52.170;20.884;2022-10-03T03:11:02;7.93;;;3.78;;
21274;SDS011;36472;52.170;20.884;2022-10-03T03:14:08;6.65;;;3.72;;
21274;SDS011;36472;52.170;20.884;2022-10-03T03:17:10;9.02;;;4.50;;
21274;SDS011;36472;52.170;20.884;2022-10-03T03:20:00;5.28;;;3.75;;
21274;SDS011;36472;52.170;20.884;2022-10-03T03:22:56;4.65;;;4.18;;
21274;SDS011;36472;52.170;20.884;2022-10-03T03:25:59;8.27;;;4.25;;
21274;SDS011;36472;52.170;20.884;2022-10-03T03:28:51;8.20;;;4.00;;
21274;SDS011;36472;52.170;20.884;2022-10-03T03:31:35;6.72;;;4.22;;
21274;SDS011;36472;52.170;20.884;2022-10-03T03:34:14;6.25;;;4.22;;
21274;SDS011;36472;52.170;20.884;2022-10-03T03:36:54;8.00;;;3.85;;
21274;SDS011;36472;52.170;20.884;2022-10-03T03:39:37;8.98;;;3.90;;
21274;SDS011;36472;52.170;20.884;2022-10-03T03:42:47;9.25;;;4.18;;
21274;SDS011;36472;52.170;20.884;2022-10-03T03:45:41;5.78;;;3.85;;
21274;SDS011;36472;52.170;20.884;2022-10-03T03:48:31;4.75;;;3.83;;
21274;SDS011;36472;52.170;20.884;2022-10-03T03:51:19;8.45;;;4.30;;
21274;SDS011;36472;52.170;20.884;2022-10-03T03:54:05;5.80;;;3.88;;
21274;SDS011;36472;52.170;20.884;2022-10-03T03:57:14;5.80;;;3.78;;
21274;SDS011;36472;52.170;20.884;2022-10-03T04:00:07;7.40;;;4.03;;
21274;SDS011;36472;52.170;20.884;2022-10-03T04:02:58;6.38;;;3.78;;
21274;SDS011;36472;52.170;20.884;2022-10-03T04:10:35;7.40;;;3.90;;
21274;SDS011;36472;52.170;20.884;2022-10-03T04:13:26;6.88;;;4.25;;
21274;SDS011;36472;52.170;20.884;2022-10-03T04:16:19;7.93;;;4.93;;
21274;SDS011;36472;52.170;20.884;2022-10-03T04:19:27;6.35;;;3.72;;
21274;SDS011;36472;52.170;20.884;2022-10-03T04:22:23;4.70;;;3.90;;
21274;SDS011;36472;52.170;20.884;2022-10-03T04:25:22;10.38;;;4.82;;
21274;SDS011;36472;52.170;20.884;2022-10-03T04:28:17;6.35;;;4.50;;
21274;SDS011;36472;52.170;20.884;2022-10-03T04:31:09;6.68;;;4.75;;
21274;SDS011;36472;52.170;20.884;2022-10-03T04:33:57;9.45;;;4.20;;
21274;SDS011;36472;52.170;20.884;2022-10-03T04:36:57;8.85;;;4.60;;
21274;SDS011;36472;52.170;20.884;2022-10-03T04:39:44;10.82;;;5.88;;
21274;SDS011;36472;52.170;20.884;2022-10-03T04:42:28;10.23;;;5.53;;
21274;SDS011;36472;52.170;20.884;2022-10-03T04:45:17;7.28;;;4.80;;
21274;SDS011;36472;52.170;20.884;2022-10-03T04:48:09;8.73;;;5.35;;
21274;SDS011;36472;52.170;20.884;2022-10-03T04:55:19;7.35;;;6.30;;
21274;SDS011;36472;52.170;20.884;2022-10-03T04:58:02;9.10;;;5.18;;
21274;SDS011;36472;52.170;20.884;2022-10-03T05:00:49;7.88;;;5.25;;
21274;SDS011;36472;52.170;20.884;2022-10-03T05:03:35;7.13;;;4.90;;
21274;SDS011;36472;52.170;20.884;2022-10-03T05:06:21;6.03;;;5.00;;
21274;SDS011;36472;52.170;20.884;2022-10-03T05:09:11;6.93;;;5.03;;
21274;SDS011;36472;52.170;20.884;2022-10-03T05:11:55;8.57;;;5.45;;
21274;SDS011;36472;52.170;20.884;2022-10-03T05:14:50;6.55;;;4.85;;
21274;SDS011;36472;52.170;20.884;2022-10-03T05:17:43;7.70;;;5.65;;
21274;SDS011;36472;52.170;20.884;2022-10-03T05:20:27;9.40;;;5.63;;
21274;SDS011;36472;52.170;20.884;2022-10-03T05:23:18;7.22;;;4.95;;
21274;SDS011;36472;52.170;20.884;2022-10-03T05:26:07;8.48;;;6.68;;
21274;SDS011;36472;52.170;20.884;2022-10-03T05:29:09;7.90;;;5.53;;
21274;SDS011;36472;52.170;20.884;2022-10-03T05:31:49;8.13;;;5.65;;
21274;SDS011;36472;52.170;20.884;2022-10-03T05:34:47;9.23;;;5.72;;
21274;SDS011;36472;52.170;20.884;2022-10-03T05:37:49;9.85;;;5.10;;
21274;SDS011;36472;52.170;20.884;2022-10-03T05:40:47;8.77;;;5.68;;
21274;SDS011;36472;52.170;20.884;2022-10-03T05:43:34;9.68;;;5.65;;
21274;SDS011;36472;52.170;20.884;2022-10-03T05:46:37;7.53;;;5.60;;
21274;SDS011;36472;52.170;20.884;2022-10-03T05:49:35;7.78;;;5.03;;
21274;SDS011;36472;52.170;20.884;2022-10-03T05:52:26;5.82;;;4.72;;
21274;SDS011;36472;52.170;20.884;2022-10-03T05:55:27;8.50;;;4.90;;
21274;SDS011;36472;52.170;20.884;2022-10-03T06:01:35;7.90;;;5.93;;
21274;SDS011;36472;52.170;20.884;2022-10-03T06:04:39;6.82;;;4.93;;
21274;SDS011;36472;52.170;20.884;2022-10-03T06:08:11;4.63;;;3.70;;
21274;SDS011;36472;52.170;20.884;2022-10-03T06:11:13;9.55;;;5.38;;
21274;SDS011;36472;52.170;20.884;2022-10-03T06:14:07;7.88;;;4.90;;
21274;SDS011;36472;52.170;20.884;2022-10-03T06:16:59;8.68;;;4.65;;
21274;SDS011;36472;52.170;20.884;2022-10-03T06:19:50;6.97;;;4.28;;
21274;SDS011;36472;52.170;20.884;2022-10-03T06:22:45;8.05;;;4.93;;
21274;SDS011;36472;52.170;20.884;2022-10-03T06:25:51;7.03;;;4.03;;
21274;SDS011;36472;52.170;20.884;2022-10-03T06:29:21;7.28;;;4.07;;
21274;SDS011;36472;52.170;20.884;2022-10-03T06:32:52;9.07;;;4.72;;
21274;SDS011;36472;52.170;20.884;2022-10-03T06:39:27;7.38;;;4.25;;
21274;SDS011;36472;52.170;20.884;2022-10-03T06:42:55;5.57;;;4.32;;
21274;SDS011;36472;52.170;20.884;2022-10-03T06:53:45;7.55;;;4.63;;
21274;SDS011;36472;52.170;20.884;2022-10-03T06:57:11;6.40;;;4.00;;
21274;SDS011;36472;52.170;20.884;2022-10-03T07:00:00;5.10;;;3.72;;
21274;SDS011;36472;52.170;20.884;2022-10-03T07:03:01;7.97;;;3.95;;
21274;SDS011;36472;52.170;20.884;2022-10-03T07:06:09;7.22;;;4.53;;
21274;SDS011;36472;52.170;20.884;2022-10-03T07:12:59;8.02;;;4.47;;
21274;SDS011;36472;52.170;20.884;2022-10-03T07:16:04;6.88;;;4.43;;
21274;SDS011;36472;52.170;20.884;2022-10-03T07:19:33;9.88;;;4.00;;
21274;SDS011;36472;52.170;20.884;2022-10-03T07:22:40;6.38;;;3.40;;
21274;SDS011;36472;52.170;20.884;2022-10-03T07:32:37;5.35;;;3.42;;
21274;SDS011;36472;52.170;20.884;2022-10-03T07:36:11;6.30;;;3.45;;
21274;SDS011;36472;52.170;20.884;2022-10-03T07:39:42;4.28;;;2.60;;
21274;SDS011;36472;52.170;20.884;2022-10-03T07:42:54;5.40;;;3.70;;
21274;SDS011;36472;52.170;20.884;2022-10-03T07:46:05;4.22;;;3.28;;
21274;SDS011;36472;52.170;20.884;2022-10-03T07:57:05;4.28;;;2.88;;
21274;SDS011;36472;52.170;20.884;2022-10-03T08:11:03;4.20;;;2.72;;
21274;SDS011;36472;52.170;20.884;2022-10-03T08:13:56;3.92;;;2.63;;
21274;SDS011;36472;52.170;20.884;2022-10-03T08:20:54;4.72;;;2.60;;
21274;SDS011;36472;52.170;20.884;2022-10-03T08:23:31;3.65;;;2.85;;
21274;SDS011;36472;52.170;20.884;2022-10-03T08:26:54;4.15;;;2.53;;
21274;SDS011;36472;52.170;20.884;2022-10-03T08:30:02;3.00;;;2.45;;
21274;SDS011;36472;52.170;20.884;2022-10-03T08:44:31;3.42;;;2.85;;
21274;SDS011;36472;52.170;20.884;2022-10-03T08:50:45;3.38;;;3.08;;
21274;SDS011;36472;52.170;20.884;2022-10-03T08:53:36;3.88;;;2.83;;
21274;SDS011;36472;52.170;20.884;2022-10-03T08:57:03;4.70;;;3.08;;
21274;SDS011;36472;52.170;20.884;2022-10-03T08:59:59;3.42;;;3.00;;
21274;SDS011;36472;52.170;20.884;2022-10-03T09:02:55;5.47;;;3.42;;
21274;SDS011;36472;52.170;20.884;2022-10-03T09:06:41;5.05;;;3.50;;
21274;SDS011;36472;52.170;20.884;2022-10-03T09:10:00;3.88;;;2.75;;
21274;SDS011;36472;52.170;20.884;2022-10-03T09:25:22;4.35;;;3.72;;
21274;SDS011;36472;52.170;20.884;2022-10-03T09:28:19;5.82;;;3.60;;
21274;SDS011;36472;52.170;20.884;2022-10-03T09:38:26;5.35;;;3.75;;
21274;SDS011;36472;52.170;20.884;2022-10-03T09:45:14;7.10;;;4.50;;
21274;SDS011;36472;52.170;20.884;2022-10-03T09:48:23;5.63;;;4.57;;
21274;SDS011;36472;52.170;20.884;2022-10-03T09:59:32;5.03;;;4.20;;
21274;SDS011;36472;52.170;20.884;2022-10-03T10:05:38;5.80;;;3.70;;
21274;SDS011;36472;52.170;20.884;2022-10-03T10:08:37;5.05;;;3.85;;
21274;SDS011;36472;52.170;20.884;2022-10-03T10:15:17;6.22;;;4.38;;
21274;SDS011;36472;52.170;20.884;2022-10-03T10:18:32;5.95;;;4.43;;
21274;SDS011;36472;52.170;20.884;2022-10-03T10:21:41;7.65;;;4.95;;
21274;SDS011;36472;52.170;20.884;2022-10-03T10:25:01;7.25;;;4.63;;
21274;SDS011;36472;52.170;20.884;2022-10-03T10:28:03;4.97;;;4.15;;
21274;SDS011;36472;52.170;20.884;2022-10-03T10:34:38;4.30;;;3.90;;
21274;SDS011;36472;52.170;20.884;2022-10-03T10:41:02;5.50;;;3.90;;
21274;SDS011;36472;52.170;20.884;2022-10-03T10:48:41;3.25;;;2.95;;
21274;SDS011;36472;52.170;20.884;2022-10-03T10:52:27;2.53;;;2.33;;
21274;SDS011;36472;52.170;20.884;2022-10-03T11:03:39;3.45;;;1.85;;
21274;SDS011;36472;52.170;20.884;2022-10-03T11:07:10;1.98;;;1.67;;
21274;SDS011;36472;52.170;20.884;2022-10-03T11:10:31;1.55;;;1.30;;
21274;SDS011;36472;52.170;20.884;2022-10-03T11:26:51;2.05;;;1.80;;
21274;SDS011;36472;52.170;20.884;2022-10-03T11:33:45;2.33;;;1.80;;
21274;SDS011;36472;52.170;20.884;2022-10-03T11:37:04;3.58;;;1.40;;
21274;SDS011;36472;52.170;20.884;2022-10-03T11:39:43;2.35;;;1.10;;
21274;SDS011;36472;52.170;20.884;2022-10-03T11:42:28;4.45;;;1.23;;
21274;SDS011;36472;52.170;20.884;2022-10-03T11:45:19;2.35;;;1.40;;
21274;SDS011;36472;52.170;20.884;2022-10-03T11:48:03;1.52;;;1.40;;
21274;SDS011;36472;52.170;20.884;2022-10-03T11:50:56;1.85;;;1.23;;
21274;SDS011;36472;52.170;20.884;2022-10-03T11:53:38;1.13;;;1.00;;
21274;SDS011;36472;52.170;20.884;2022-10-03T11:56:19;1.40;;;1.30;;
21274;SDS011;36472;52.170;20.884;2022-10-03T11:59:13;1.83;;;1.10;;
21274;SDS011;36472;52.170;20.884;2022-10-03T12:02:05;2.63;;;1.30;;
21274;SDS011;36472;52.170;20.884;2022-10-03T12:04:45;1.70;;;1.35;;
21274;SDS011;36472;52.170;20.884;2022-10-03T12:07:37;2.42;;;1.50;;
21274;SDS011;36472;52.170;20.884;2022-10-03T12:10:45;3.58;;;1.60;;
21274;SDS011;36472;52.170;20.884;2022-10-03T12:17:38;2.08;;;1.25;;
21274;SDS011;36472;52.170;20.884;2022-10-03T12:20:17;1.42;;;1.10;;
21274;SDS011;36472;52.170;20.884;2022-10-03T12:22:55;3.88;;;1.35;;
21274;SDS011;36472;52.170;20.884;2022-10-03T12:25:35;2.25;;;1.40;;
21274;SDS011;36472;52.170;20.884;2022-10-03T12:28:11;3.53;;;1.77;;
21274;SDS011;36472;52.170;20.884;2022-10-03T12:30:50;2.92;;;1.70;;
21274;SDS011;36472;52.170;20.884;2022-10-03T12:33:36;1.75;;;1.20;;
21274;SDS011;36472;52.170;20.884;2022-10-03T12:40:29;4.07;;;1.05;;
21274;SDS011;36472;52.170;20.884;2022-10-03T12:43:07;2.78;;;1.88;;
21274;SDS011;36472;52.170;20.884;2022-10-03T12:46:00;2.70;;;1.30;;
21274;SDS011;36472;52.170;20.884;2022-10-03T12:48:43;1.60;;;1.15;;
21274;SDS011;36472;52.170;20.884;2022-10-03T12:51:28;1.38;;;1.13;;
21274;SDS011;36472;52.170;20.884;2022-10-03T12:54:17;1.75;;;1.08;;
21274;SDS011;36472;52.170;20.884;2022-10-03T12:57:24;3.05;;;1.17;;
21274;SDS011;36472;52.170;20.884;2022-10-03T13:00:21;2.05;;;1.30;;
21274;SDS011;36472;52.170;20.884;2022-10-03T13:09:41;5.38;;;1.02;;
21274;SDS011;36472;52.170;20.884;2022-10-03T13:16:37;3.40;;;2.00;;
21274;SDS011;36472;52.170;20.884;2022-10-03T13:19:17;2.47;;;1.50;;
21274;SDS011;36472;52.170;20.884;2022-10-03T13:21:55;2.13;;;1.23;;
21274;SDS011;36472;52.170;20.884;2022-10-03T13:24:40;5.97;;;1.67;;
21274;SDS011;36472;52.170;20.884;2022-10-03T13:27:23;2.75;;;1.58;;
21274;SDS011;36472;52.170;20.884;2022-10-03T13:30:03;3.05;;;1.92;;
21274;SDS011;36472;52.170;20.884;2022-10-03T13:32:41;3.58;;;1.35;;
21274;SDS011;36472;52.170;20.884;2022-10-03T13:35:21;3.03;;;2.05;;
21274;SDS011;36472;52.170;20.884;2022-10-03T13:38:32;2.63;;;2.42;;
21274;SDS011;36472;52.170;20.884;2022-10-03T13:41:23;3.40;;;1.70;;
21274;SDS011;36472;52.170;20.884;2022-10-03T13:44:01;2.25;;;2.05;;
21274;SDS011;36472;52.170;20.884;2022-10-03T13:46:39;2.55;;;2.25;;
21274;SDS011;36472;52.170;20.884;2022-10-03T16:02:50;3.00;;;2.47;;
21274;SDS011;36472;52.170;20.884;2022-10-03T16:05:29;3.70;;;2.28;;
21274;SDS011;36472;52.170;20.884;2022-10-03T16:07:58;7.22;;;6.15;;
21274;SDS011;36472;52.170;20.884;2022-10-03T16:10:35;5.57;;;4.82;;
21274;SDS011;36472;52.170;20.884;2022-10-03T16:13:13;4.75;;;3.90;;
21274;SDS011;36472;52.170;20.884;2022-10-03T16:16:09;3.08;;;2.70;;
21274;SDS011;36472;52.170;20.884;2022-10-03T16:18:47;5.65;;;2.70;;
21274;SDS011;36472;52.170;20.884;2022-10-03T16:21:37;3.00;;;2.60;;
21274;SDS011;36472;52.170;20.884;2022-10-03T16:24:17;7.03;;;3.00;;
21274;SDS011;36472;52.170;20.884;2022-10-03T16:27:00;4.47;;;2.70;;
21274;SDS011;36472;52.170;20.884;2022-10-03T16:29:43;4.57;;;3.22;;
21274;SDS011;36472;52.170;20.884;2022-10-03T16:32:21;5.68;;;3.30;;
21274;SDS011;36472;52.170;20.884;2022-10-03T16:34:55;6.03;;;3.83;;
21274;SDS011;36472;52.170;20.884;2022-10-03T16:37:29;5.70;;;3.67;;
21274;SDS011;36472;52.170;20.884;2022-10-03T16:39:59;6.43;;;5.22;;
21274;SDS011;36472;52.170;20.884;2022-10-03T16:42:35;7.80;;;5.57;;
21274;SDS011;36472;52.170;20.884;2022-10-03T16:45:17;7.95;;;4.10;;
21274;SDS011;36472;52.170;20.884;2022-10-03T16:47:52;6.72;;;4.70;;
21274;SDS011;36472;52.170;20.884;2022-10-03T16:50:46;8.07;;;5.13;;
21274;SDS011;36472;52.170;20.884;2022-10-03T16:53:20;6.70;;;5.70;;
21274;SDS011;36472;52.170;20.884;2022-10-03T16:55:51;6.50;;;5.45;;
21274;SDS011;36472;52.170;20.884;2022-10-03T16:58:26;7.38;;;5.43;;
21274;SDS011;36472;52.170;20.884;2022-10-03T17:01:00;6.07;;;4.15;;
21274;SDS011;36472;52.170;20.884;2022-10-03T17:03:53;7.10;;;5.40;;
21274;SDS011;36472;52.170;20.884;2022-10-03T17:06:31;6.72;;;5.28;;
21274;SDS011;36472;52.170;20.884;2022-10-03T17:09:06;6.68;;;5.22;;
21274;SDS011;36472;52.170;20.884;2022-10-03T17:11:50;7.50;;;5.50;;
21274;SDS011;36472;52.170;20.884;2022-10-03T17:14:24;7.05;;;4.82;;
21274;SDS011;36472;52.170;20.884;2022-10-03T17:17:03;7.43;;;5.80;;
21274;SDS011;36472;52.170;20.884;2022-10-03T17:19:43;6.38;;;4.18;;
21274;SDS011;36472;52.170;20.884;2022-10-03T17:22:26;6.13;;;4.10;;
21274;SDS011;36472;52.170;20.884;2022-10-03T17:25:03;6.15;;;3.80;;
21274;SDS011;36472;52.170;20.884;2022-10-03T17:28:01;5.93;;;4.47;;
21274;SDS011;36472;52.170;20.884;2022-10-03T17:30:34;17.90;;;11.93;;
21274;SDS011;36472;52.170;20.884;2022-10-03T17:33:12;9.68;;;6.35;;
21274;SDS011;36472;52.170;20.884;2022-10-03T17:35:52;8.10;;;4.70;;
21274;SDS011;36472;52.170;20.884;2022-10-03T17:38:37;7.20;;;5.28;;
21274;SDS011;36472;52.170;20.884;2022-10-03T17:41:20;6.82;;;4.72;;
21274;SDS011;36472;52.170;20.884;2022-10-03T17:43:57;7.22;;;4.35;;
21274;SDS011;36472;52.170;20.884;2022-10-03T17:46:50;7.65;;;4.03;;
21274;SDS011;36472;52.170;20.884;2022-10-03T17:49:35;7.25;;;4.90;;
21274;SDS011;36472;52.170;20.884;2022-10-03T17:52:19;7.47;;;4.32;;
21274;SDS011;36472;52.170;20.884;2022-10-03T17:54:52;8.10;;;5.47;;
21274;SDS011;36472;52.170;20.884;2022-10-03T17:57:26;10.50;;;6.15;;
21274;SDS011;36472;52.170;20.884;2022-10-03T18:00:04;9.27;;;6.22;;
21274;SDS011;36472;52.170;20.884;2022-10-03T18:02:50;8.00;;;4.80;;
21274;SDS011;36472;52.170;20.884;2022-10-03T18:05:28;9.60;;;4.95;;
21274;SDS011;36472;52.170;20.884;2022-10-03T18:08:04;7.82;;;4.88;;
21274;SDS011;36472;52.170;20.884;2022-10-03T18:10:45;6.00;;;3.55;;
21274;SDS011;36472;52.170;20.884;2022-10-03T18:13:20;5.95;;;3.67;;
21274;SDS011;36472;52.170;20.884;2022-10-03T18:16:07;8.68;;;4.80;;
21274;SDS011;36472;52.170;20.884;2022-10-03T18:18:52;5.88;;;3.83;;
21274;SDS011;36472;52.170;20.884;2022-10-03T18:21:46;5.90;;;4.03;;
21274;SDS011;36472;52.170;20.884;2022-10-03T18:24:54;7.40;;;5.05;;
21274;SDS011;36472;52.170;20.884;2022-10-03T18:30:48;7.15;;;4.68;;
21274;SDS011;36472;52.170;20.884;2022-10-03T18:33:24;9.40;;;4.15;;
21274;SDS011;36472;52.170;20.884;2022-10-03T18:36:00;4.80;;;3.45;;
21274;SDS011;36472;52.170;20.884;2022-10-03T18:38:38;6.45;;;4.20;;
21274;SDS011;36472;52.170;20.884;2022-10-03T18:41:12;6.95;;;4.30;;
21274;SDS011;36472;52.170;20.884;2022-10-03T18:43:50;5.85;;;4.28;;
21274;SDS011;36472;52.170;20.884;2022-10-03T18:46:25;8.60;;;5.15;;
21274;SDS011;36472;52.170;20.884;2022-10-03T18:49:04;9.93;;;6.05;;
21274;SDS011;36472;52.170;20.884;2022-10-03T18:52:05;8.43;;;5.82;;
21274;SDS011;36472;52.170;20.884;2022-10-03T18:54:46;10.35;;;6.72;;
21274;SDS011;36472;52.170;20.884;2022-10-03T18:57:28;7.85;;;6.00;;
21274;SDS011;36472;52.170;20.884;2022-10-03T19:00:06;9.43;;;6.22;;
21274;SDS011;36472;52.170;20.884;2022-10-03T19:02:47;8.25;;;6.10;;
21274;SDS011;36472;52.170;20.884;2022-10-03T19:05:21;8.65;;;5.93;;
21274;SDS011;36472;52.170;20.884;2022-10-03T19:08:00;6.68;;;5.82;;
21274;SDS011;36472;52.170;20.884;2022-10-03T19:10:37;7.90;;;5.85;;
21274;SDS011;36472;52.170;20.884;2022-10-03T19:13:17;9.52;;;6.13;;
21274;SDS011;36472;52.170;20.884;2022-10-03T19:19:04;6.45;;;5.55;;
21274;SDS011;36472;52.170;20.884;2022-10-03T19:21:39;9.43;;;8.02;;
21274;SDS011;36472;52.170;20.884;2022-10-03T19:24:13;7.47;;;6.47;;
21274;SDS011;36472;52.170;20.884;2022-10-03T19:27:09;7.88;;;6.10;;
21274;SDS011;36472;52.170;20.884;2022-10-03T19:29:43;10.02;;;7.00;;
21274;SDS011;36472;52.170;20.884;2022-10-03T19:32:20;9.40;;;7.22;;
21274;SDS011;36472;52.170;20.884;2022-10-03T19:34:57;10.52;;;7.15;;
21274;SDS011;36472;52.170;20.884;2022-10-03T19:37:34;8.90;;;6.82;;
21274;SDS011;36472;52.170;20.884;2022-10-03T19:40:13;9.95;;;7.00;;
21274;SDS011;36472;52.170;20.884;2022-10-03T19:42:58;11.68;;;6.60;;
21274;SDS011;36472;52.170;20.884;2022-10-03T19:46:23;7.82;;;6.07;;
21274;SDS011;36472;52.170;20.884;2022-10-03T19:55:11;8.68;;;6.55;;
21274;SDS011;36472;52.170;20.884;2022-10-03T19:57:44;9.32;;;6.90;;
21274;SDS011;36472;52.170;20.884;2022-10-03T20:00:19;11.20;;;7.15;;
21274;SDS011;36472;52.170;20.884;2022-10-03T20:03:03;15.05;;;7.80;;
21274;SDS011;36472;52.170;20.884;2022-10-03T20:06:00;11.02;;;6.95;;
21274;SDS011;36472;52.170;20.884;2022-10-03T20:08:34;9.32;;;6.82;;
21274;SDS011;36472;52.170;20.884;2022-10-03T20:11:16;8.82;;;6.97;;
21274;SDS011;36472;52.170;20.884;2022-10-03T20:14:06;10.80;;;7.22;;
21274;SDS011;36472;52.170;20.884;2022-10-03T20:16:42;9.13;;;6.72;;
21274;SDS011;36472;52.170;20.884;2022-10-03T20:19:16;10.90;;;8.00;;
21274;SDS011;36472;52.170;20.884;2022-10-03T20:21:52;9.05;;;6.72;;
21274;SDS011;36472;52.170;20.884;2022-10-03T20:24:26;9.68;;;8.00;;
21274;SDS011;36472;52.170;20.884;2022-10-03T20:27:05;11.65;;;8.65;;
21274;SDS011;36472;52.170;20.884;2022-10-03T20:29:54;8.63;;;7.10;;
21274;SDS011;36472;52.170;20.884;2022-10-03T20:32:34;10.23;;;7.60;;
21274;SDS011;36472;52.170;20.884;2022-10-03T20:35:10;10.43;;;8.18;;
21274;SDS011;36472;52.170;20.884;2022-10-03T20:37:47;11.02;;;7.68;;
21274;SDS011;36472;52.170;20.884;2022-10-03T20:40:24;9.80;;;7.60;;
21274;SDS011;36472;52.170;20.884;2022-10-03T20:43:16;10.50;;;7.78;;
21274;SDS011;36472;52.170;20.884;2022-10-03T20:46:15;10.18;;;8.38;;
21274;SDS011;36472;52.170;20.884;2022-10-03T20:49:02;10.35;;;8.80;;
21274;SDS011;36472;52.170;20.884;2022-10-03T20:51:58;10.07;;;8.20;;
21274;SDS011;36472;52.170;20.884;2022-10-03T20:54:36;10.48;;;8.60;;
21274;SDS011;36472;52.170;20.884;2022-10-03T20:57:16;14.02;;;9.00;;
21274;SDS011;36472;52.170;20.884;2022-10-03T20:59:51;13.70;;;10.15;;
21274;SDS011;36472;52.170;20.884;2022-10-03T21:02:32;13.75;;;9.93;;
21274;SDS011;36472;52.170;20.884;2022-10-03T21:05:12;10.95;;;8.93;;
21274;SDS011;36472;52.170;20.884;2022-10-03T21:07:49;11.32;;;9.27;;
21274;SDS011;36472;52.170;20.884;2022-10-03T21:10:26;13.95;;;9.73;;
21274;SDS011;36472;52.170;20.884;2022-10-03T21:12:59;13.50;;;9.57;;
21274;SDS011;36472;52.170;20.884;2022-10-03T21:15:36;10.77;;;9.32;;
21274;SDS011;36472;52.170;20.884;2022-10-03T21:18:17;12.80;;;9.55;;
21274;SDS011;36472;52.170;20.884;2022-10-03T21:20:49;12.32;;;10.65;;
21274;SDS011;36472;52.170;20.884;2022-10-03T21:23:34;12.43;;;10.15;;
21274;SDS011;36472;52.170;20.884;2022-10-03T21:26:11;11.55;;;9.68;;
21274;SDS011;36472;52.170;20.884;2022-10-03T21:28:47;13.30;;;9.95;;
21274;SDS011;36472;52.170;20.884;2022-10-03T21:34:13;13.43;;;9.38;;
21274;SDS011;36472;52.170;20.884;2022-10-03T21:36:54;12.35;;;10.40;;
21274;SDS011;36472;52.170;20.884;2022-10-03T21:39:40;14.52;;;10.82;;
21274;SDS011;36472;52.170;20.884;2022-10-03T21:42:32;12.57;;;9.30;;
21274;SDS011;36472;52.170;20.884;2022-10-03T21:45:17;11.15;;;9.93;;
21274;SDS011;36472;52.170;20.884;2022-10-03T21:47:57;12.10;;;10.20;;
21274;SDS011;36472;52.170;20.884;2022-10-03T21:50:40;12.18;;;10.13;;
21274;SDS011;36472;52.170;20.884;2022-10-03T21:53:21;10.23;;;9.13;;
21274;SDS011;36472;52.170;20.884;2022-10-03T21:56:12;14.38;;;9.23;;
21274;SDS011;36472;52.170;20.884;2022-10-03T22:02:04;9.82;;;8.55;;
21274;SDS011;36472;52.170;20.884;2022-10-03T22:04:46;10.35;;;9.02;;
21274;SDS011;36472;52.170;20.884;2022-10-03T22:07:31;11.38;;;8.70;;
21274;SDS011;36472;52.170;20.884;2022-10-03T22:10:05;10.70;;;9.60;;
21274;SDS011;36472;52.170;20.884;2022-10-03T22:12:48;11.27;;;9.05;;
21274;SDS011;36472;52.170;20.884;2022-10-03T22:15:24;11.00;;;9.00;;
21274;SDS011;36472;52.170;20.884;2022-10-03T22:18:06;11.75;;;10.05;;
21274;SDS011;36472;52.170;20.884;2022-10-03T22:20:46;10.70;;;9.52;;
21274;SDS011;36472;52.170;20.884;2022-10-03T22:23:25;10.63;;;9.00;;
21274;SDS011;36472;52.170;20.884;2022-10-03T22:26:10;10.35;;;8.38;;
21274;SDS011;36472;52.170;20.884;2022-10-03T22:28:51;11.77;;;9.48;;